Dades meteomassalio
Diari Summary for Setembre 21, 2017 Units:  Metric    English   Both
« Previous Day
Next Day »
Diari Semanal Mensual Anual Personalitzat
  Maxima: Minima: Mijana:
Temperatura: 28.3 °C 5.0 °C 15.4 °C
Rosada: 16.4 °C -1.5 °C 8.7 °C
Humitat: 88 % 43 % 66 %
Velocitat del vent: 20.4 km/h 0.0 km/h 4.2 km/h
Racha vent: 20.4 km/h - -
Vent:- - SSE
Pressio: 1020.9 hPa 1016.8 hPa -
Pluja: 0.0 mm    
Historical Graphs
 
 
Tabular Data for Setembre 21, 2017
Time Temperature Dew Point Pressure Wind Wind Speed Wind Gust Humidity Rainfall Rate (Hourly) solar Conditions
00:02 8.3 °C -1.5 °C 1020.5 hPa Calm     50 % 0.0 mm 0.0 W/m2 CLR
00:07 8.9 °C -1.0 °C 1020.5 hPa Calm     50 % 0.0 mm 0.0 W/m2 CLR
00:12 9.4 °C -0.7 °C 1020.5 hPa Calm     49 % 0.0 mm 0.0 W/m2 CLR
00:17 9.4 °C -0.2 °C 1020.5 hPa Calm     51 % 0.0 mm 0.0 W/m2 CLR
00:22 9.4 °C -0.2 °C 1020.5 hPa Calm     51 % 0.0 mm 0.0 W/m2 CLR
00:27 8.9 °C -0.4 °C 1020.5 hPa Calm     52 % 0.0 mm 0.0 W/m2 CLR
00:32 8.9 °C -1.0 °C 1020.5 hPa Calm     50 % 0.0 mm 0.0 W/m2 CLR
00:37 8.9 °C -1.0 °C 1020.5 hPa Calm     50 % 0.0 mm 0.0 W/m2 CLR
00:42 8.9 °C -1.0 °C 1020.5 hPa Calm     50 % 0.0 mm 0.0 W/m2 CLR
00:47 8.3 °C -1.2 °C 1020.5 hPa Calm     51 % 0.0 mm 0.0 W/m2 CLR
00:52 8.3 °C -0.9 °C 1020.5 hPa Calm     52 % 0.0 mm 0.0 W/m2 CLR
00:57 7.8 °C -1.2 °C 1020.5 hPa Calm     53 % 0.0 mm 0.0 W/m2 CLR
01:02 7.8 °C -0.9 °C 1020.5 hPa Calm     54 % 0.0 mm 0.0 W/m2 CLR
01:07 7.2 °C -1.2 °C 1020.5 hPa Calm     55 % 0.0 mm 0.0 W/m2 CLR
01:12 7.2 °C -1.2 °C 1020.5 hPa Calm     55 % 0.0 mm 0.0 W/m2 CLR
01:17 7.2 °C -1.0 °C 1020.5 hPa Calm     56 % 0.0 mm 0.0 W/m2 CLR
01:22 7.2 °C -1.2 °C 1020.5 hPa Calm     55 % 0.0 mm 0.0 W/m2 CLR
01:27 7.2 °C -1.0 °C 1020.5 hPa Calm     56 % 0.0 mm 0.0 W/m2 CLR
01:32 7.2 °C -1.0 °C 1020.5 hPa Calm     56 % 0.0 mm 0.0 W/m2 CLR
01:37 7.2 °C -0.7 °C 1020.5 hPa Calm     57 % 0.0 mm 0.0 W/m2 CLR
01:42 7.2 °C -0.5 °C 1020.5 hPa Calm     58 % 0.0 mm 0.0 W/m2 CLR
01:47 7.2 °C -0.3 °C 1020.5 hPa Calm     59 % 0.0 mm 0.0 W/m2 CLR
01:52 7.2 °C -0.3 °C 1020.5 hPa Calm     59 % 0.0 mm 0.0 W/m2 CLR
01:57 6.7 °C -0.8 °C 1020.5 hPa Calm     59 % 0.0 mm 0.0 W/m2 CLR
02:02 6.7 °C -0.6 °C 1020.5 hPa Calm     60 % 0.0 mm 0.0 W/m2 CLR
02:07 6.7 °C -0.3 °C 1020.5 hPa Calm     61 % 0.0 mm 0.0 W/m2 CLR
02:13 6.7 °C -0.3 °C 1020.5 hPa Calm     61 % 0.0 mm 0.0 W/m2 CLR
02:17 6.7 °C -0.3 °C 1020.5 hPa Calm     61 % 0.0 mm 0.0 W/m2 CLR
02:22 6.7 °C -0.1 °C 1020.5 hPa Calm     62 % 0.0 mm 0.0 W/m2 CLR
02:28 6.7 °C 0.1 °C 1020.5 hPa Calm     63 % 0.0 mm 0.0 W/m2 CLR
02:33 6.7 °C 0.6 °C 1020.5 hPa Calm     65 % 0.0 mm 0.0 W/m2 CLR
02:38 6.7 °C 0.8 °C 1020.5 hPa Calm     66 % 0.0 mm 0.0 W/m2 CLR
02:43 6.7 °C 0.9 °C 1020.5 hPa Calm     67 % 0.0 mm 0.0 W/m2 CLR
02:48 6.7 °C 0.6 °C 1020.5 hPa Calm     65 % 0.0 mm 0.0 W/m2 CLR
02:53 6.1 °C 0.4 °C 1020.5 hPa Calm     67 % 0.0 mm 0.0 W/m2 CLR
02:58 6.1 °C 0.4 °C 1020.5 hPa Calm     67 % 0.0 mm 0.0 W/m2 CLR
03:03 6.1 °C 0.4 °C 1020.5 hPa Calm     67 % 0.0 mm 0.0 W/m2 CLR
03:08 6.1 °C 0.7 °C 1020.5 hPa Calm     68 % 0.0 mm 0.0 W/m2 CLR
03:13 6.1 °C 1.1 °C 1020.5 hPa Calm     70 % 0.0 mm 0.0 W/m2 CLR
03:18 6.1 °C 1.6 °C 1020.5 hPa Calm     73 % 0.0 mm 0.0 W/m2 CLR
03:23 6.1 °C 1.8 °C 1020.5 hPa Calm     74 % 0.0 mm 0.0 W/m2 CLR
03:28 5.6 °C 1.1 °C 1020.2 hPa Calm     73 % 0.0 mm 0.0 W/m2 CLR
03:33 5.6 °C 1.1 °C 1020.2 hPa Calm     73 % 0.0 mm 0.0 W/m2 CLR
03:38 5.6 °C 1.4 °C 1020.2 hPa Calm     75 % 0.0 mm 0.0 W/m2 CLR
03:43 5.6 °C 1.3 °C 1020.2 hPa Calm     74 % 0.0 mm 0.0 W/m2 CLR
03:48 5.6 °C 2.0 °C 1020.2 hPa Calm     78 % 0.0 mm 0.0 W/m2 CLR
03:53 5.6 °C 2.2 °C 1020.2 hPa Calm     79 % 0.0 mm 0.0 W/m2 CLR
03:58 5.6 °C 1.7 °C 1020.2 hPa Calm     76 % 0.0 mm 0.0 W/m2 CLR
04:03 5.6 °C 1.7 °C 1020.2 hPa Calm     76 % 0.0 mm 0.0 W/m2 CLR
04:08 5.6 °C 1.8 °C 1020.2 hPa Calm     77 % 0.0 mm 0.0 W/m2 CLR
04:13 5.6 °C 1.8 °C 1020.2 hPa Calm     77 % 0.0 mm 0.0 W/m2 CLR
04:18 5.6 °C 2.0 °C 1020.2 hPa Calm     78 % 0.0 mm 0.0 W/m2 CLR
04:23 5.6 °C 2.0 °C 1020.2 hPa Calm     78 % 0.0 mm 0.0 W/m2 CLR
04:28 5.6 °C 2.4 °C 1020.2 hPa Calm     80 % 0.0 mm 0.0 W/m2 CLR
04:33 5.6 °C 2.6 °C 1020.2 hPa Calm     81 % 0.0 mm 0.0 W/m2 CLR
04:38 5.6 °C 2.6 °C 1020.2 hPa Calm     81 % 0.0 mm 0.0 W/m2 CLR
04:43 5.6 °C 2.7 °C 1020.2 hPa Calm     82 % 0.0 mm 0.0 W/m2 CLR
04:48 5.6 °C 2.9 °C 1020.2 hPa Calm     83 % 0.0 mm 0.0 W/m2 CLR
04:53 5.6 °C 2.7 °C 1020.2 hPa Calm     82 % 0.0 mm 0.0 W/m2 CLR
04:58 5.6 °C 2.6 °C 1019.9 hPa Calm     81 % 0.0 mm 0.0 W/m2 CLR
05:03 5.6 °C 2.6 °C 1019.9 hPa Calm     81 % 0.0 mm 0.0 W/m2 CLR
05:08 5.6 °C 2.9 °C 1019.9 hPa Calm     83 % 0.0 mm 0.0 W/m2 CLR
05:14 5.6 °C 2.7 °C 1019.9 hPa Calm     82 % 0.0 mm 0.0 W/m2 CLR
05:19 5.6 °C 3.1 °C 1020.2 hPa Calm     84 % 0.0 mm 0.0 W/m2 CLR
05:21 5.6 °C 3.1 °C 1020.2 hPa Calm     84 % 0.0 mm 0.0 W/m2 CLR
05:25 5.6 °C 2.9 °C 1019.9 hPa Calm     83 % 0.0 mm 0.0 W/m2 CLR
05:27 5.6 °C 3.1 °C 1020.2 hPa Calm     84 % 0.0 mm 0.0 W/m2 CLR
05:31 5.0 °C 2.5 °C 1020.2 hPa Calm     84 % 0.0 mm 0.0 W/m2 CLR
05:36 5.0 °C 2.5 °C 1020.2 hPa Calm     84 % 0.0 mm 0.0 W/m2 CLR
05:41 5.0 °C 2.7 °C 1020.2 hPa Calm     85 % 0.0 mm 0.0 W/m2 CLR
05:46 5.0 °C 2.7 °C 1019.9 hPa Calm     85 % 0.0 mm 0.0 W/m2 CLR
05:51 5.6 °C 3.1 °C 1019.9 hPa Calm     84 % 0.0 mm 0.0 W/m2 CLR
05:56 5.0 °C 2.7 °C 1020.2 hPa Calm     85 % 0.0 mm 0.0 W/m2 CLR
06:01 5.6 °C 3.4 °C 1019.9 hPa Calm     86 % 0.0 mm 0.0 W/m2 CLR
06:06 5.6 °C 3.6 °C 1019.9 hPa Calm     87 % 0.0 mm 0.0 W/m2 CLR
06:11 5.6 °C 3.2 °C 1020.2 hPa Calm     85 % 0.0 mm 0.0 W/m2 CLR
06:16 5.6 °C 3.2 °C 1019.9 hPa Calm     85 % 0.0 mm 0.0 W/m2 CLR
06:21 5.0 °C 2.7 °C 1019.9 hPa Calm     85 % 0.0 mm 0.0 W/m2 CLR
06:26 5.0 °C 2.7 °C 1019.9 hPa Calm     85 % 0.0 mm 0.0 W/m2 CLR
06:31 5.6 °C 3.2 °C 1019.9 hPa Calm     85 % 0.0 mm 0.0 W/m2 CLR
06:36 5.6 °C 3.6 °C 1019.9 hPa Calm     87 % 0.0 mm 0.0 W/m2 CLR
06:41 5.6 °C 3.6 °C 1019.9 hPa Calm     87 % 0.0 mm 0.0 W/m2 CLR
06:46 5.0 °C 3.0 °C 1019.9 hPa Calm     87 % 0.0 mm 0.0 W/m2 CLR
06:51 5.6 °C 3.6 °C 1019.9 hPa Calm     87 % 0.0 mm 0.0 W/m2 CLR
06:56 5.6 °C 3.4 °C 1019.9 hPa Calm     86 % 0.0 mm 0.0 W/m2 CLR
07:01 5.6 °C 3.6 °C 1019.9 hPa Calm     87 % 0.0 mm 0.0 W/m2 CLR
07:06 5.0 °C 3.0 °C 1019.9 hPa Calm     87 % 0.0 mm 0.0 W/m2 CLR
07:11 5.0 °C 3.0 °C 1019.9 hPa Calm     87 % 0.0 mm 0.0 W/m2 CLR
07:16 5.0 °C 3.0 °C 1019.9 hPa Calm     87 % 0.0 mm 0.0 W/m2 CLR
07:21 5.0 °C 3.0 °C 1019.9 hPa Calm     87 % 0.0 mm 0.0 W/m2 CLR
07:26 5.0 °C 2.8 °C 1020.2 hPa Calm     86 % 0.0 mm 0.0 W/m2 CLR
07:31 5.0 °C 3.0 °C 1020.2 hPa Calm     87 % 0.0 mm 0.0 W/m2 CLR
07:36 5.0 °C 3.0 °C 1020.2 hPa Calm     87 % 0.0 mm 0.0 W/m2 OVC
07:41 5.0 °C 3.0 °C 1020.2 hPa Calm     87 % 0.0 mm 0.0 W/m2 OVC
07:46 5.0 °C 3.0 °C 1020.2 hPa Calm     87 % 0.0 mm 5.0 W/m2 OVC
07:51 5.0 °C 3.0 °C 1020.2 hPa Calm     87 % 0.0 mm 7.0 W/m2 BKN
07:57 5.0 °C 3.2 °C 1020.2 hPa Calm     88 % 0.0 mm 11.0 W/m2 BKN
08:02 5.0 °C 3.2 °C 1020.2 hPa Calm     88 % 0.0 mm 14.0 W/m2 BKN
08:07 5.0 °C 3.2 °C 1020.5 hPa Calm     88 % 0.0 mm 19.0 W/m2 BKN
08:12 5.6 °C 3.7 °C 1020.5 hPa Calm     88 % 0.0 mm 23.0 W/m2 BKN
08:17 5.6 °C 3.7 °C 1020.5 hPa Calm     88 % 0.0 mm 25.0 W/m2 BKN
08:22 5.6 °C 3.7 °C 1020.5 hPa Calm     88 % 0.0 mm 30.0 W/m2 BKN
08:27 5.6 °C 3.7 °C 1020.5 hPa Calm     88 % 0.0 mm 39.0 W/m2 BKN
08:32 6.7 °C 4.8 °C 1020.5 hPa Calm     88 % 0.0 mm 58.0 W/m2 SCT
08:37 6.7 °C 4.7 °C 1020.5 hPa Calm     87 % 0.0 mm 74.0 W/m2 FEW
08:42 6.7 °C 4.7 °C 1020.5 hPa Calm     87 % 0.0 mm 77.0 W/m2 FEW
08:47 7.2 °C 5.2 °C 1020.5 hPa Calm     87 % 0.0 mm 102.0 W/m2 CLR
08:52 7.2 °C 5.1 °C 1020.5 hPa Calm     86 % 0.0 mm 97.0 W/m2 CLR
08:57 7.8 °C 5.6 °C 1020.5 hPa Calm     86 % 0.0 mm 132.0 W/m2 CLR
09:02 7.8 °C 5.2 °C 1020.2 hPa Calm     84 % 0.0 mm 149.0 W/m2 CLR
09:07 8.3 °C 5.6 °C 1020.5 hPa Calm     83 % 0.0 mm 171.0 W/m2 CLR
09:12 8.9 °C 6.0 °C 1020.5 hPa Calm     82 % 0.0 mm 190.0 W/m2 CLR
09:17 9.4 °C 6.3 °C 1020.5 hPa Calm     81 % 0.0 mm 207.0 W/m2 CLR
09:22 9.4 °C 6.3 °C 1020.5 hPa Calm     81 % 0.0 mm 223.0 W/m2 CLR
09:27 10.0 °C 6.7 °C 1020.5 hPa Calm     80 % 0.0 mm 213.0 W/m2 CLR
09:32 10.6 °C 6.9 °C 1020.5 hPa Calm     78 % 0.0 mm 258.0 W/m2 CLR
09:37 11.1 °C 7.1 °C 1020.5 hPa Calm     76 % 0.0 mm 271.0 W/m2 CLR
09:42 11.1 °C 6.8 °C 1020.5 hPa Calm     75 % 0.0 mm 276.0 W/m2 CLR
09:47 11.7 °C 7.4 °C 1020.5 hPa Calm     75 % 0.0 mm 281.0 W/m2 CLR
09:52 11.7 °C 7.4 °C 1020.5 hPa Calm     75 % 0.0 mm 309.0 W/m2 CLR
09:57 12.8 °C 8.3 °C 1020.5 hPa Calm     74 % 0.0 mm 325.0 W/m2 CLR
10:02 13.3 °C 8.4 °C 1020.5 hPa Calm     72 % 0.0 mm 338.0 W/m2 CLR
10:07 13.3 °C 8.2 °C 1020.9 hPa Calm     71 % 0.0 mm 360.0 W/m2 CLR
10:12 13.9 °C 8.5 °C 1020.5 hPa Calm     70 % 0.0 mm 374.0 W/m2 CLR
10:17 14.4 °C 8.6 °C 1020.9 hPa Calm     68 % 0.0 mm 390.0 W/m2 CLR
10:22 14.4 °C 8.4 °C 1020.5 hPa Calm     67 % 0.0 mm 404.0 W/m2 CLR
10:27 15.0 °C 8.2 °C 1020.5 hPa Calm     64 % 0.0 mm 417.0 W/m2 CLR
10:32 15.6 °C 8.6 °C 1020.5 hPa Calm     63 % 0.0 mm 432.0 W/m2 CLR
10:33 15.6 °C 8.3 °C 1020.5 hPa Calm     62 % 0.0 mm 436.0 W/m2 CLR
10:38 16.1 °C 8.6 °C 1020.5 hPa Calm     61 % 0.0 mm 448.0 W/m2 CLR
10:43 16.1 °C 8.8 °C 1020.5 hPa Calm     62 % 0.0 mm 454.0 W/m2 CLR
10:48 16.7 °C 9.8 °C 1020.5 hPa Calm     64 % 0.0 mm 469.0 W/m2 CLR
10:53 16.7 °C 10.3 °C 1020.5 hPa Calm     66 % 0.0 mm 482.0 W/m2 CLR
10:58 17.2 °C 10.3 °C 1020.5 hPa North 3.2 km/h 3.2 km/h 64 % 0.0 mm 510.0 W/m2 CLR
11:03 17.2 °C 9.6 °C 1020.5 hPa NNW 3.7 km/h 3.7 km/h 61 % 0.0 mm 520.0 W/m2 CLR
11:08 17.8 °C 10.2 °C 1020.5 hPa NNE 5.6 km/h 5.6 km/h 61 % 0.0 mm 531.0 W/m2 CLR
11:13 18.3 °C 10.7 °C 1020.5 hPa NNW 5.6 km/h 5.6 km/h 61 % 0.0 mm 543.0 W/m2 CLR
11:18 18.3 °C 9.9 °C 1020.5 hPa North 3.7 km/h 3.7 km/h 58 % 0.0 mm 552.0 W/m2 CLR
11:23 18.3 °C 10.2 °C 1020.5 hPa NNW 3.7 km/h 3.7 km/h 59 % 0.0 mm 564.0 W/m2 CLR
11:28 18.9 °C 10.7 °C 1020.5 hPa NNE 4.8 km/h 4.8 km/h 59 % 0.0 mm 573.0 W/m2 CLR
11:33 18.9 °C 10.4 °C 1020.5 hPa NW 5.6 km/h 5.6 km/h 58 % 0.0 mm 578.0 W/m2 CLR
11:38 18.9 °C 10.7 °C 1020.5 hPa Calm   0.3 km/h 59 % 0.0 mm 598.0 W/m2 CLR
11:43 19.4 °C 10.9 °C 1020.5 hPa NW 6.4 km/h 6.4 km/h 58 % 0.0 mm 610.0 W/m2 CLR
11:48 19.4 °C 11.2 °C 1020.2 hPa NNE 6.4 km/h 6.4 km/h 59 % 0.0 mm 617.0 W/m2 CLR
11:53 20.0 °C 11.5 °C 1020.2 hPa NNW 3.7 km/h 3.7 km/h 58 % 0.0 mm 628.0 W/m2 CLR
11:58 20.0 °C 11.5 °C 1020.2 hPa NNE 4.8 km/h 4.8 km/h 58 % 0.0 mm 636.0 W/m2 CLR
12:03 20.0 °C 11.5 °C 1020.2 hPa North 5.6 km/h 5.6 km/h 58 % 0.0 mm 645.0 W/m2 CLR
12:08 20.6 °C 12.0 °C 1020.2 hPa NNW 4.8 km/h 4.8 km/h 58 % 0.0 mm 657.0 W/m2 CLR
12:13 20.6 °C 12.3 °C 1020.2 hPa WNW 5.6 km/h 5.6 km/h 59 % 0.0 mm 664.0 W/m2 CLR
12:18 20.6 °C 12.3 °C 1019.9 hPa NW 7.4 km/h 7.4 km/h 59 % 0.0 mm 673.0 W/m2 CLR
12:23 20.6 °C 12.5 °C 1019.9 hPa Calm     60 % 0.0 mm 682.0 W/m2 CLR
12:28 21.1 °C 13.1 °C 1019.9 hPa NW 5.6 km/h 5.6 km/h 60 % 0.0 mm 691.0 W/m2 CLR
12:33 21.7 °C 13.6 °C 1019.9 hPa NNE 5.6 km/h 5.6 km/h 60 % 0.0 mm 700.0 W/m2 CLR
12:38 21.7 °C 13.3 °C 1019.9 hPa NNW 9.3 km/h 9.3 km/h 59 % 0.0 mm 708.0 W/m2 CLR
12:43 22.2 °C 14.1 °C 1019.9 hPa NNW 5.6 km/h 5.6 km/h 60 % 0.0 mm 710.0 W/m2 CLR
12:48 22.2 °C 14.1 °C 1019.5 hPa NW 5.6 km/h 5.6 km/h 60 % 0.0 mm 724.0 W/m2 CLR
12:53 22.2 °C 14.1 °C 1019.5 hPa NNW 6.4 km/h 6.4 km/h 60 % 0.0 mm 735.0 W/m2 CLR
12:58 22.8 °C 14.6 °C 1019.5 hPa NW 6.4 km/h 6.4 km/h 60 % 0.0 mm 751.0 W/m2 CLR
13:03 22.8 °C 14.9 °C 1019.5 hPa Calm     61 % 0.0 mm 752.0 W/m2 CLR
13:08 23.3 °C 15.1 °C 1019.2 hPa Calm     60 % 0.0 mm 752.0 W/m2 CLR
13:13 23.3 °C 14.9 °C 1019.2 hPa NW 6.4 km/h 6.4 km/h 59 % 0.0 mm 737.0 W/m2 CLR
13:18 23.3 °C 15.1 °C 1019.2 hPa WNW 1.9 km/h 1.9 km/h 60 % 0.0 mm 714.0 W/m2 CLR
13:23 23.3 °C 14.9 °C 1019.2 hPa Calm     59 % 0.0 mm 717.0 W/m2 CLR
13:28 23.3 °C 14.3 °C 1019.2 hPa NNW 9.3 km/h 9.3 km/h 57 % 0.0 mm 751.0 W/m2 CLR
13:33 23.9 °C 15.1 °C 1019.2 hPa NW 5.6 km/h 5.6 km/h 58 % 0.0 mm 770.0 W/m2 CLR
13:38 23.9 °C 14.8 °C 1018.8 hPa NW 6.4 km/h 6.4 km/h 57 % 0.0 mm 766.0 W/m2 CLR
13:43 23.9 °C 14.8 °C 1018.8 hPa NNW 9.3 km/h 9.3 km/h 57 % 0.0 mm 770.0 W/m2 CLR
13:48 24.4 °C 15.1 °C 1018.8 hPa NW 16.7 km/h 16.7 km/h 56 % 0.0 mm 756.0 W/m2 CLR
13:53 24.4 °C 15.1 °C 1018.5 hPa NW 5.6 km/h 5.6 km/h 56 % 0.0 mm 710.0 W/m2 CLR
13:58 24.4 °C 14.8 °C 1018.5 hPa NW 4.8 km/h 4.8 km/h 55 % 0.0 mm 763.0 W/m2 CLR
14:03 25.0 °C 15.3 °C 1018.5 hPa West 9.3 km/h 9.3 km/h 55 % 0.0 mm 768.0 W/m2 CLR
14:08 25.6 °C 15.8 °C 1018.5 hPa NW 6.4 km/h 6.4 km/h 55 % 0.0 mm 766.0 W/m2 CLR
14:13 25.6 °C 15.6 °C 1018.5 hPa NW 13.0 km/h 13.0 km/h 54 % 0.0 mm 765.0 W/m2 CLR
14:18 25.6 °C 15.3 °C 1018.2 hPa WNW 11.1 km/h 11.1 km/h 53 % 0.0 mm 763.0 W/m2 CLR
14:23 25.6 °C 14.7 °C 1018.2 hPa NNW 5.6 km/h 5.6 km/h 51 % 0.0 mm 766.0 W/m2 CLR
14:28 26.1 °C 15.5 °C 1018.2 hPa NNW 14.8 km/h 14.8 km/h 52 % 0.0 mm 765.0 W/m2 CLR
14:33 26.1 °C 15.2 °C 1018.2 hPa Calm     51 % 0.0 mm 766.0 W/m2 CLR
14:38 26.7 °C 15.1 °C 1017.8 hPa NW 18.5 km/h 18.5 km/h 49 % 0.0 mm 754.0 W/m2 CLR
14:43 26.7 °C 14.7 °C 1017.8 hPa North 7.4 km/h 7.6 km/h 48 % 0.0 mm 758.0 W/m2 CLR
14:48 26.7 °C 14.4 °C 1017.8 hPa West 13.0 km/h 13.0 km/h 47 % 0.0 mm 761.0 W/m2 CLR
14:53 26.7 °C 13.7 °C 1017.8 hPa NW 14.8 km/h 14.8 km/h 45 % 0.0 mm 759.0 W/m2 CLR
14:58 27.2 °C 13.9 °C 1017.8 hPa NW 16.7 km/h 16.7 km/h 44 % 0.0 mm 719.0 W/m2 CLR
15:03 27.2 °C 13.6 °C 1017.8 hPa NW 7.4 km/h 7.4 km/h 43 % 0.0 mm 661.0 W/m2 CLR
15:08 27.2 °C 13.9 °C 1017.8 hPa Calm   0.3 km/h 44 % 0.0 mm 689.0 W/m2 CLR
15:13 27.2 °C 13.9 °C 1017.8 hPa NW 9.3 km/h 9.3 km/h 44 % 0.0 mm 649.0 W/m2 CLR
15:18 27.2 °C 14.3 °C 1017.8 hPa Calm     45 % 0.0 mm 679.0 W/m2 CLR
15:23 27.8 °C 14.8 °C 1017.5 hPa Calm     45 % 0.0 mm 761.0 W/m2 CLR
15:28 27.8 °C 15.1 °C 1017.5 hPa West 7.4 km/h 7.4 km/h 46 % 0.0 mm 782.0 W/m2 CLR
15:34 28.3 °C 15.6 °C 1017.5 hPa NW 20.4 km/h 20.4 km/h 46 % 0.0 mm 779.0 W/m2 CLR
15:39 27.8 °C 15.1 °C 1017.5 hPa NW 14.8 km/h 14.8 km/h 46 % 0.0 mm 742.0 W/m2 CLR
15:44 28.3 °C 15.9 °C 1017.5 hPa NE 14.8 km/h 14.8 km/h 47 % 0.0 mm 712.0 W/m2 CLR
15:49 27.8 °C 15.4 °C 1017.5 hPa NNE 14.8 km/h 14.8 km/h 47 % 0.0 mm 647.0 W/m2 CLR
15:54 27.8 °C 15.4 °C 1017.2 hPa NNE 14.8 km/h 14.8 km/h 47 % 0.0 mm 729.0 W/m2 CLR
15:59 27.8 °C 15.4 °C 1017.2 hPa North 8.0 km/h 8.0 km/h 47 % 0.0 mm 712.0 W/m2 CLR
16:04 27.2 °C 14.6 °C 1017.2 hPa NNE 16.7 km/h 16.7 km/h 46 % 0.0 mm 656.0 W/m2 CLR
16:09 27.2 °C 14.6 °C 1017.2 hPa NE 14.8 km/h 14.8 km/h 46 % 0.0 mm 397.0 W/m2 CLR
16:14 27.2 °C 14.6 °C 1017.2 hPa NNE 14.8 km/h 14.8 km/h 46 % 0.0 mm 519.0 W/m2 CLR
16:19 27.2 °C 14.9 °C 1017.2 hPa NE 17.7 km/h 17.7 km/h 47 % 0.0 mm 285.0 W/m2 CLR
16:24 26.7 °C 14.7 °C 1017.2 hPa NNE 16.7 km/h 16.7 km/h 48 % 0.0 mm 339.0 W/m2 CLR
16:29 26.7 °C 15.1 °C 1017.2 hPa NE 11.1 km/h 11.1 km/h 49 % 0.0 mm 536.0 W/m2 CLR
16:34 27.2 °C 14.9 °C 1017.2 hPa NE 5.6 km/h 5.6 km/h 47 % 0.0 mm 510.0 W/m2 CLR
16:39 27.2 °C 14.9 °C 1017.2 hPa NE 14.8 km/h 14.8 km/h 47 % 0.0 mm 482.0 W/m2 CLR
16:44 27.8 °C 15.4 °C 1016.8 hPa NNE 11.1 km/h 11.1 km/h 47 % 0.0 mm 573.0 W/m2 CLR
16:49 27.8 °C 15.4 °C 1016.8 hPa North 9.7 km/h 9.7 km/h 47 % 0.0 mm 585.0 W/m2 CLR
16:54 27.8 °C 15.1 °C 1016.8 hPa NNE 14.8 km/h 14.8 km/h 46 % 0.0 mm 543.0 W/m2 CLR
16:59 27.8 °C 14.8 °C 1016.8 hPa North 5.6 km/h 5.6 km/h 45 % 0.0 mm 380.0 W/m2 CLR
17:04 27.2 °C 14.6 °C 1016.8 hPa ENE 18.5 km/h 18.5 km/h 46 % 0.0 mm 332.0 W/m2 CLR
17:09 27.2 °C 14.6 °C 1016.8 hPa NNE 9.3 km/h 9.3 km/h 46 % 0.0 mm 432.0 W/m2 CLR
17:14 27.2 °C 15.3 °C 1016.8 hPa North 16.7 km/h 16.7 km/h 48 % 0.0 mm 287.0 W/m2 CLR
17:19 26.7 °C 14.7 °C 1016.8 hPa North 18.5 km/h 18.5 km/h 48 % 0.0 mm 476.0 W/m2 CLR
17:24 27.2 °C 15.6 °C 1016.8 hPa NNE 16.7 km/h 16.7 km/h 49 % 0.0 mm 450.0 W/m2 CLR
17:29 27.2 °C 15.6 °C 1016.8 hPa NNE 14.5 km/h 14.5 km/h 49 % 0.0 mm 367.0 W/m2 CLR
17:34 27.2 °C 15.6 °C 1016.8 hPa NNE 16.1 km/h 16.1 km/h 49 % 0.0 mm 431.0 W/m2 CLR
17:39 27.2 °C 15.6 °C 1016.8 hPa NNE 18.5 km/h 18.5 km/h 49 % 0.0 mm 401.0 W/m2 CLR
17:44 27.2 °C 15.9 °C 1016.8 hPa ENE 14.8 km/h 14.8 km/h 50 % 0.0 mm 339.0 W/m2 CLR
17:49 27.2 °C 15.9 °C 1016.8 hPa ENE 16.1 km/h 16.1 km/h 50 % 0.0 mm 336.0 W/m2 CLR
17:54 27.2 °C 16.2 °C 1016.8 hPa NE 9.7 km/h 9.7 km/h 51 % 0.0 mm 241.0 W/m2 CLR
17:59 26.1 °C 15.5 °C 1016.8 hPa NNE 16.7 km/h 16.7 km/h 52 % 0.0 mm 262.0 W/m2 CLR
18:04 26.1 °C 15.8 °C 1016.8 hPa NE 18.5 km/h 18.5 km/h 53 % 0.0 mm 179.0 W/m2 CLR
18:09 25.6 °C 15.6 °C 1016.8 hPa NE 14.8 km/h 14.8 km/h 54 % 0.0 mm 135.0 W/m2 CLR
18:14 25.6 °C 15.8 °C 1017.2 hPa NNE 18.5 km/h 18.5 km/h 55 % 0.0 mm 142.0 W/m2 CLR
18:15 25.6 °C 15.8 °C 1017.2 hPa NE 16.7 km/h 16.7 km/h 55 % 0.0 mm 130.0 W/m2 CLR
18:20 25.0 °C 15.6 °C 1017.2 hPa NE 16.7 km/h 16.7 km/h 56 % 0.0 mm 206.0 W/m2 CLR
18:25 25.6 °C 16.1 °C 1017.2 hPa NE 18.5 km/h 18.5 km/h 56 % 0.0 mm 244.0 W/m2 CLR
18:30 25.6 °C 16.1 °C 1017.2 hPa NNE 18.5 km/h 18.5 km/h 56 % 0.0 mm 234.0 W/m2 CLR
18:35 25.6 °C 16.1 °C 1017.2 hPa NE 16.7 km/h 16.7 km/h 56 % 0.0 mm 223.0 W/m2 CLR
18:40 25.6 °C 16.1 °C 1017.2 hPa NE 14.8 km/h 14.8 km/h 56 % 0.0 mm 199.0 W/m2 CLR
18:45 25.6 °C 16.1 °C 1017.2 hPa NE 18.5 km/h 18.5 km/h 56 % 0.0 mm 162.0 W/m2 CLR
18:50 25.6 °C 16.4 °C 1017.2 hPa ENE 18.5 km/h 18.5 km/h 57 % 0.0 mm 156.0 W/m2 CLR
18:55 25.6 °C 16.4 °C 1017.2 hPa NE 16.7 km/h 16.7 km/h 57 % 0.0 mm 139.0 W/m2 CLR
19:00 25.0 °C 15.9 °C 1017.2 hPa ENE 13.0 km/h 13.0 km/h 57 % 0.0 mm 114.0 W/m2 CLR
19:05 25.0 °C 15.9 °C 1017.2 hPa ENE 16.7 km/h 16.7 km/h 57 % 0.0 mm 97.0 W/m2 CLR
19:10 24.4 °C 15.4 °C 1017.2 hPa ENE 18.5 km/h 18.5 km/h 57 % 0.0 mm 81.0 W/m2 FEW
19:15 24.4 °C 15.7 °C 1017.2 hPa NE 20.4 km/h 20.4 km/h 58 % 0.0 mm 63.0 W/m2 SCT
19:20 24.4 °C 15.7 °C 1017.2 hPa ENE 20.4 km/h 20.4 km/h 58 % 0.0 mm 54.0 W/m2 SCT
19:25 23.9 °C 15.4 °C 1017.2 hPa NE 20.4 km/h 20.4 km/h 59 % 0.0 mm 44.0 W/m2 SCT
19:30 23.9 °C 15.7 °C 1017.2 hPa NE 13.0 km/h 13.0 km/h 60 % 0.0 mm 37.0 W/m2 BKN
19:35 23.3 °C 15.1 °C 1017.2 hPa NE 6.4 km/h 6.4 km/h 60 % 0.0 mm 30.0 W/m2 BKN
19:40 23.3 °C 15.4 °C 1017.2 hPa ENE 14.5 km/h 14.5 km/h 61 % 0.0 mm 23.0 W/m2 BKN
19:45 22.8 °C 15.1 °C 1017.5 hPa ENE 14.8 km/h 14.8 km/h 62 % 0.0 mm 18.0 W/m2 BKN
19:50 22.8 °C 15.1 °C 1017.5 hPa ENE 13.0 km/h 13.0 km/h 62 % 0.0 mm 14.0 W/m2 BKN
19:55 22.8 °C 15.1 °C 1017.5 hPa ENE 14.8 km/h 14.8 km/h 62 % 0.0 mm 7.0 W/m2 BKN
20:00 22.2 °C 14.8 °C 1017.5 hPa NE 8.0 km/h 8.0 km/h 63 % 0.0 mm 0.0 W/m2 CLR
20:05 22.2 °C 15.1 °C 1017.5 hPa NNE 14.8 km/h 14.8 km/h 64 % 0.0 mm 0.0 W/m2 CLR
20:10 21.7 °C 14.8 °C 1017.5 hPa NE 9.3 km/h 9.3 km/h 65 % 0.0 mm 0.0 W/m2 CLR
20:15 21.7 °C 14.8 °C 1017.5 hPa NE 7.4 km/h 7.4 km/h 65 % 0.0 mm 0.0 W/m2 CLR
20:20 21.1 °C 14.3 °C 1017.8 hPa Calm     65 % 0.0 mm 0.0 W/m2 CLR
20:25 20.6 °C 14.0 °C 1017.8 hPa Calm     66 % 0.0 mm 0.0 W/m2 CLR
20:30 20.6 °C 14.0 °C 1017.8 hPa Calm     66 % 0.0 mm 0.0 W/m2 CLR
20:35 20.0 °C 13.7 °C 1017.8 hPa Calm     67 % 0.0 mm 0.0 W/m2 CLR
20:40 19.4 °C 13.2 °C 1017.8 hPa Calm     67 % 0.0 mm 0.0 W/m2 CLR
20:45 19.4 °C 13.4 °C 1017.8 hPa Calm     68 % 0.0 mm 0.0 W/m2 CLR
20:50 18.9 °C 12.8 °C 1018.2 hPa Calm     68 % 0.0 mm 0.0 W/m2 CLR
20:55 18.9 °C 12.8 °C 1017.8 hPa Calm     68 % 0.0 mm 0.0 W/m2 CLR
21:00 18.3 °C 12.6 °C 1018.2 hPa Calm     69 % 0.0 mm 0.0 W/m2 CLR
21:05 18.3 °C 12.6 °C 1018.2 hPa Calm     69 % 0.0 mm 0.0 W/m2 CLR
21:10 17.8 °C 12.0 °C 1018.2 hPa ENE 5.6 km/h 5.6 km/h 69 % 0.0 mm 0.0 W/m2 CLR
21:15 17.2 °C 11.5 °C 1018.2 hPa Calm     69 % 0.0 mm 0.0 W/m2 CLR
21:20 17.2 °C 11.7 °C 1018.2 hPa Calm     70 % 0.0 mm 0.0 W/m2 CLR
21:25 16.7 °C 11.2 °C 1018.2 hPa Calm     70 % 0.0 mm 0.0 W/m2 CLR
21:30 16.7 °C 11.4 °C 1018.2 hPa Calm     71 % 0.0 mm 0.0 W/m2 CLR
21:35 16.1 °C 11.1 °C 1018.2 hPa Calm     72 % 0.0 mm 0.0 W/m2 CLR
21:40 16.1 °C 11.1 °C 1018.5 hPa NE 5.6 km/h 5.6 km/h 72 % 0.0 mm 0.0 W/m2 CLR
21:45 16.1 °C 11.1 °C 1018.5 hPa NE 5.6 km/h 5.6 km/h 72 % 0.0 mm 0.0 W/m2 CLR
21:50 16.1 °C 11.3 °C 1018.5 hPa Calm     73 % 0.0 mm 0.0 W/m2 CLR
21:55 16.1 °C 11.3 °C 1018.5 hPa Calm     73 % 0.0 mm 0.0 W/m2 CLR
22:00 16.1 °C 11.3 °C 1018.5 hPa Calm     73 % 0.0 mm 0.0 W/m2 CLR
22:05 16.1 °C 11.5 °C 1018.5 hPa Calm     74 % 0.0 mm 0.0 W/m2 CLR
22:10 15.6 °C 10.9 °C 1018.5 hPa Calm     74 % 0.0 mm 0.0 W/m2 CLR
22:15 15.6 °C 10.9 °C 1018.5 hPa Calm     74 % 0.0 mm 0.0 W/m2 CLR
22:20 15.6 °C 11.2 °C 1018.5 hPa Calm     75 % 0.0 mm 0.0 W/m2 CLR
22:21 15.6 °C 10.9 °C 1018.5 hPa Calm     74 % 0.0 mm 0.0 W/m2 CLR
22:26 15.0 °C 10.4 °C 1018.5 hPa Calm     74 % 0.0 mm 0.0 W/m2 CLR
22:31 15.0 °C 10.6 °C 1018.5 hPa Calm     75 % 0.0 mm 0.0 W/m2 CLR
22:36 15.0 °C 10.8 °C 1018.8 hPa Calm     76 % 0.0 mm 0.0 W/m2 CLR
22:41 15.0 °C 10.8 °C 1018.5 hPa Calm     76 % 0.0 mm 0.0 W/m2 CLR
22:46 15.0 °C 10.8 °C 1018.5 hPa Calm     76 % 0.0 mm 0.0 W/m2 CLR
22:51 15.0 °C 11.0 °C 1018.8 hPa ENE 5.6 km/h 5.6 km/h 77 % 0.0 mm 0.0 W/m2 CLR
22:56 15.0 °C 11.0 °C 1018.8 hPa Calm     77 % 0.0 mm 0.0 W/m2 CLR
23:01 15.0 °C 11.0 °C 1018.8 hPa Calm     77 % 0.0 mm 0.0 W/m2 CLR
23:06 15.0 °C 11.0 °C 1018.8 hPa Calm     77 % 0.0 mm 0.0 W/m2 CLR
23:11 15.0 °C 11.0 °C 1018.8 hPa Calm     77 % 0.0 mm 0.0 W/m2 CLR
23:16 15.0 °C 11.0 °C 1018.8 hPa Calm     77 % 0.0 mm 0.0 W/m2 CLR
23:21 15.0 °C 11.4 °C 1018.8 hPa Calm     79 % 0.0 mm 0.0 W/m2 CLR
23:26 15.0 °C 11.2 °C 1018.8 hPa Calm     78 % 0.0 mm 0.0 W/m2 CLR
23:31 15.0 °C 11.4 °C 1018.8 hPa Calm     79 % 0.0 mm 0.0 W/m2 CLR
23:36 15.0 °C 11.4 °C 1018.8 hPa Calm     79 % 0.0 mm 0.0 W/m2 CLR
23:38 15.0 °C 11.4 °C 1018.8 hPa Calm     79 % 0.0 mm 0.0 W/m2 CLR
23:43 15.0 °C 11.4 °C 1018.8 hPa Calm     79 % 0.0 mm 0.0 W/m2 CLR
23:48 15.0 °C 11.4 °C 1018.8 hPa Calm     79 % 0.0 mm 0.0 W/m2 CLR
23:53 15.0 °C 11.4 °C 1019.2 hPa Calm     79 % 0.0 mm 0.0 W/m2 CLR
23:58 15.0 °C 11.6 °C 1019.2 hPa Calm     80 % 0.0 mm 0.0 W/m2 CLR
Lo Temps de Massalio
Compliments of Weather Underground - 1.25 mb